sensor_id;sensor_type;location;lat;lon;timestamp;temperature;humidity
59307;DHT22;47983;53.016;-2.260;2023-12-07T00:01:23;3.70;99.90
59307;DHT22;47983;53.016;-2.260;2023-12-07T00:03:52;3.80;99.90
59307;DHT22;47983;53.016;-2.260;2023-12-07T00:06:21;3.80;99.90
59307;DHT22;47983;53.016;-2.260;2023-12-07T00:08:50;3.80;99.90
59307;DHT22;47983;53.016;-2.260;2023-12-07T00:11:24;3.80;99.90
59307;DHT22;47983;53.016;-2.260;2023-12-07T00:13:51;3.80;99.90
59307;DHT22;47983;53.016;-2.260;2023-12-07T00:16:21;3.80;99.90
59307;DHT22;47983;53.016;-2.260;2023-12-07T00:18:49;3.70;99.90
59307;DHT22;47983;53.016;-2.260;2023-12-07T00:21:17;3.70;99.90
59307;DHT22;47983;53.016;-2.260;2023-12-07T00:23:45;3.70;99.90
59307;DHT22;47983;53.016;-2.260;2023-12-07T00:26:13;3.70;99.90
59307;DHT22;47983;53.016;-2.260;2023-12-07T00:28:41;3.70;99.90
59307;DHT22;47983;53.016;-2.260;2023-12-07T00:31:09;3.70;99.90
59307;DHT22;47983;53.016;-2.260;2023-12-07T00:33:38;3.70;99.90
59307;DHT22;47983;53.016;-2.260;2023-12-07T00:36:06;3.70;99.90
59307;DHT22;47983;53.016;-2.260;2023-12-07T00:38:34;3.70;99.90
59307;DHT22;47983;53.016;-2.260;2023-12-07T00:41:04;3.70;99.90
59307;DHT22;47983;53.016;-2.260;2023-12-07T00:43:33;3.70;99.90
59307;DHT22;47983;53.016;-2.260;2023-12-07T00:46:03;3.70;99.90
59307;DHT22;47983;53.016;-2.260;2023-12-07T00:48:35;3.70;99.90
59307;DHT22;47983;53.016;-2.260;2023-12-07T00:51:06;3.70;99.90
59307;DHT22;47983;53.016;-2.260;2023-12-07T00:53:34;3.80;99.90
59307;DHT22;47983;53.016;-2.260;2023-12-07T00:56:03;3.80;99.90
59307;DHT22;47983;53.016;-2.260;2023-12-07T00:58:31;3.80;99.90
59307;DHT22;47983;53.016;-2.260;2023-12-07T01:00:59;3.80;99.90
59307;DHT22;47983;53.016;-2.260;2023-12-07T01:03:28;3.80;99.90
59307;DHT22;47983;53.016;-2.260;2023-12-07T01:05:57;3.80;99.90
59307;DHT22;47983;53.016;-2.260;2023-12-07T01:08:25;3.90;99.90
59307;DHT22;47983;53.016;-2.260;2023-12-07T01:10:53;3.90;99.90
59307;DHT22;47983;53.016;-2.260;2023-12-07T01:13:21;3.90;99.90
59307;DHT22;47983;53.016;-2.260;2023-12-07T01:15:49;3.90;99.90
59307;DHT22;47983;53.016;-2.260;2023-12-07T01:18:19;3.90;99.90
59307;DHT22;47983;53.016;-2.260;2023-12-07T01:20:49;3.90;99.90
59307;DHT22;47983;53.016;-2.260;2023-12-07T01:23:18;3.90;99.90
59307;DHT22;47983;53.016;-2.260;2023-12-07T01:25:46;3.90;99.90
59307;DHT22;47983;53.016;-2.260;2023-12-07T01:28:14;3.90;99.90
59307;DHT22;47983;53.016;-2.260;2023-12-07T01:30:43;3.90;99.90
59307;DHT22;47983;53.016;-2.260;2023-12-07T01:33:11;3.90;99.90
59307;DHT22;47983;53.016;-2.260;2023-12-07T01:35:39;4.00;99.90
59307;DHT22;47983;53.016;-2.260;2023-12-07T01:38:08;4.00;99.90
59307;DHT22;47983;53.016;-2.260;2023-12-07T01:40:38;4.00;99.90
59307;DHT22;47983;53.016;-2.260;2023-12-07T01:43:08;4.00;99.90
59307;DHT22;47983;53.016;-2.260;2023-12-07T01:45:36;4.00;99.90
59307;DHT22;47983;53.016;-2.260;2023-12-07T01:48:04;4.00;99.90
59307;DHT22;47983;53.016;-2.260;2023-12-07T01:50:34;4.10;99.90
59307;DHT22;47983;53.016;-2.260;2023-12-07T01:53:02;4.10;99.90
59307;DHT22;47983;53.016;-2.260;2023-12-07T01:55:35;4.10;99.90
59307;DHT22;47983;53.016;-2.260;2023-12-07T01:58:07;4.10;99.90
59307;DHT22;47983;53.016;-2.260;2023-12-07T02:00:35;4.10;99.90
59307;DHT22;47983;53.016;-2.260;2023-12-07T02:03:09;4.10;99.90
59307;DHT22;47983;53.016;-2.260;2023-12-07T02:05:37;4.20;99.90
59307;DHT22;47983;53.016;-2.260;2023-12-07T02:08:05;4.20;99.90
59307;DHT22;47983;53.016;-2.260;2023-12-07T02:10:41;4.20;99.90
59307;DHT22;47983;53.016;-2.260;2023-12-07T02:13:12;4.20;99.90
59307;DHT22;47983;53.016;-2.260;2023-12-07T02:15:40;4.30;99.90
59307;DHT22;47983;53.016;-2.260;2023-12-07T02:20:49;4.30;99.90
59307;DHT22;47983;53.016;-2.260;2023-12-07T02:23:20;4.40;99.90
59307;DHT22;47983;53.016;-2.260;2023-12-07T02:26:08;4.70;99.90
59307;DHT22;47983;53.016;-2.260;2023-12-07T02:28:41;4.50;99.90
59307;DHT22;47983;53.016;-2.260;2023-12-07T02:31:09;4.50;99.90
59307;DHT22;47983;53.016;-2.260;2023-12-07T02:33:39;4.60;99.90
59307;DHT22;47983;53.016;-2.260;2023-12-07T02:36:07;4.60;99.90
59307;DHT22;47983;53.016;-2.260;2023-12-07T02:38:35;4.60;99.90
59307;DHT22;47983;53.016;-2.260;2023-12-07T02:41:04;4.60;99.90
59307;DHT22;47983;53.016;-2.260;2023-12-07T02:43:34;4.60;99.90
59307;DHT22;47983;53.016;-2.260;2023-12-07T02:46:02;4.70;99.90
59307;DHT22;47983;53.016;-2.260;2023-12-07T02:48:30;4.70;99.90
59307;DHT22;47983;53.016;-2.260;2023-12-07T02:50:58;4.70;99.90
59307;DHT22;47983;53.016;-2.260;2023-12-07T02:53:26;4.70;99.90
59307;DHT22;47983;53.016;-2.260;2023-12-07T02:55:54;4.70;99.90
59307;DHT22;47983;53.016;-2.260;2023-12-07T02:58:22;4.60;99.90
59307;DHT22;47983;53.016;-2.260;2023-12-07T03:00:49;4.60;99.90
59307;DHT22;47983;53.016;-2.260;2023-12-07T03:03:22;4.60;99.90
59307;DHT22;47983;53.016;-2.260;2023-12-07T03:05:50;4.60;99.90
59307;DHT22;47983;53.016;-2.260;2023-12-07T03:08:19;4.60;99.90
59307;DHT22;47983;53.016;-2.260;2023-12-07T03:10:49;4.60;99.90
59307;DHT22;47983;53.016;-2.260;2023-12-07T03:13:17;4.60;99.90
59307;DHT22;47983;53.016;-2.260;2023-12-07T03:15:45;4.60;99.90
59307;DHT22;47983;53.016;-2.260;2023-12-07T03:18:13;4.60;99.90
59307;DHT22;47983;53.016;-2.260;2023-12-07T03:20:40;4.60;99.90
59307;DHT22;47983;53.016;-2.260;2023-12-07T03:23:09;4.60;99.90
59307;DHT22;47983;53.016;-2.260;2023-12-07T03:25:37;4.60;99.90
59307;DHT22;47983;53.016;-2.260;2023-12-07T03:28:05;4.70;99.90
59307;DHT22;47983;53.016;-2.260;2023-12-07T03:30:32;4.70;99.90
59307;DHT22;47983;53.016;-2.260;2023-12-07T03:33:00;4.70;99.90
59307;DHT22;47983;53.016;-2.260;2023-12-07T03:35:28;4.70;99.90
59307;DHT22;47983;53.016;-2.260;2023-12-07T03:37:56;4.70;99.90
59307;DHT22;47983;53.016;-2.260;2023-12-07T03:40:24;4.70;99.90
59307;DHT22;47983;53.016;-2.260;2023-12-07T03:42:52;4.70;99.90
59307;DHT22;47983;53.016;-2.260;2023-12-07T03:45:26;4.80;99.90
59307;DHT22;47983;53.016;-2.260;2023-12-07T03:47:56;4.80;99.90
59307;DHT22;47983;53.016;-2.260;2023-12-07T03:50:24;4.80;99.90
59307;DHT22;47983;53.016;-2.260;2023-12-07T03:52:52;4.80;99.90
59307;DHT22;47983;53.016;-2.260;2023-12-07T03:55:19;4.80;99.90
59307;DHT22;47983;53.016;-2.260;2023-12-07T03:57:50;4.80;99.90
59307;DHT22;47983;53.016;-2.260;2023-12-07T04:00:18;4.80;99.90
59307;DHT22;47983;53.016;-2.260;2023-12-07T04:02:46;4.80;99.90
59307;DHT22;47983;53.016;-2.260;2023-12-07T04:05:14;4.80;99.90
59307;DHT22;47983;53.016;-2.260;2023-12-07T04:07:42;4.80;99.90
59307;DHT22;47983;53.016;-2.260;2023-12-07T04:10:10;4.80;99.90
59307;DHT22;47983;53.016;-2.260;2023-12-07T04:12:38;4.80;99.90
59307;DHT22;47983;53.016;-2.260;2023-12-07T04:15:07;4.80;99.90
59307;DHT22;47983;53.016;-2.260;2023-12-07T04:17:35;4.80;99.90
59307;DHT22;47983;53.016;-2.260;2023-12-07T04:20:03;4.80;99.90
59307;DHT22;47983;53.016;-2.260;2023-12-07T04:22:31;4.80;99.90
59307;DHT22;47983;53.016;-2.260;2023-12-07T04:24:59;4.80;99.90
59307;DHT22;47983;53.016;-2.260;2023-12-07T04:27:27;4.80;99.90
59307;DHT22;47983;53.016;-2.260;2023-12-07T04:29:55;4.80;99.90
59307;DHT22;47983;53.016;-2.260;2023-12-07T04:32:24;4.80;99.90
59307;DHT22;47983;53.016;-2.260;2023-12-07T04:34:53;4.80;99.90
59307;DHT22;47983;53.016;-2.260;2023-12-07T04:37:21;4.80;99.90
59307;DHT22;47983;53.016;-2.260;2023-12-07T04:39:49;4.80;99.90
59307;DHT22;47983;53.016;-2.260;2023-12-07T04:42:17;4.80;99.90
59307;DHT22;47983;53.016;-2.260;2023-12-07T04:44:45;4.70;99.90
59307;DHT22;47983;53.016;-2.260;2023-12-07T04:47:13;4.80;99.90
59307;DHT22;47983;53.016;-2.260;2023-12-07T04:49:40;4.80;99.90
59307;DHT22;47983;53.016;-2.260;2023-12-07T04:52:08;4.70;99.90
59307;DHT22;47983;53.016;-2.260;2023-12-07T04:54:36;4.70;99.90
59307;DHT22;47983;53.016;-2.260;2023-12-07T04:57:04;4.70;99.90
59307;DHT22;47983;53.016;-2.260;2023-12-07T04:59:32;4.70;99.90
59307;DHT22;47983;53.016;-2.260;2023-12-07T05:02:01;4.70;99.90
59307;DHT22;47983;53.016;-2.260;2023-12-07T05:04:30;4.70;99.90
59307;DHT22;47983;53.016;-2.260;2023-12-07T05:06:58;4.70;99.90
59307;DHT22;47983;53.016;-2.260;2023-12-07T05:09:26;4.70;99.90
59307;DHT22;47983;53.016;-2.260;2023-12-07T05:11:53;4.70;99.90
59307;DHT22;47983;53.016;-2.260;2023-12-07T05:14:21;4.70;99.90
59307;DHT22;47983;53.016;-2.260;2023-12-07T05:16:49;4.70;99.90
59307;DHT22;47983;53.016;-2.260;2023-12-07T05:19:21;4.80;99.90
59307;DHT22;47983;53.016;-2.260;2023-12-07T05:21:49;4.80;99.90
59307;DHT22;47983;53.016;-2.260;2023-12-07T05:24:17;4.80;99.90
59307;DHT22;47983;53.016;-2.260;2023-12-07T05:26:46;4.80;99.90
59307;DHT22;47983;53.016;-2.260;2023-12-07T05:29:14;4.90;99.90
59307;DHT22;47983;53.016;-2.260;2023-12-07T05:31:43;4.80;99.90
59307;DHT22;47983;53.016;-2.260;2023-12-07T05:34:11;4.90;99.90
59307;DHT22;47983;53.016;-2.260;2023-12-07T05:36:39;4.80;99.90
59307;DHT22;47983;53.016;-2.260;2023-12-07T05:39:07;4.90;99.90
59307;DHT22;47983;53.016;-2.260;2023-12-07T05:41:35;4.90;99.90
59307;DHT22;47983;53.016;-2.260;2023-12-07T05:44:03;4.90;99.90
59307;DHT22;47983;53.016;-2.260;2023-12-07T05:46:31;4.90;99.90
59307;DHT22;47983;53.016;-2.260;2023-12-07T05:49:00;4.90;99.90
59307;DHT22;47983;53.016;-2.260;2023-12-07T05:51:28;4.90;99.90
59307;DHT22;47983;53.016;-2.260;2023-12-07T05:53:56;4.90;99.90
59307;DHT22;47983;53.016;-2.260;2023-12-07T05:56:24;4.90;99.90
59307;DHT22;47983;53.016;-2.260;2023-12-07T05:58:52;4.90;99.90
59307;DHT22;47983;53.016;-2.260;2023-12-07T06:01:20;5.00;99.90
59307;DHT22;47983;53.016;-2.260;2023-12-07T06:03:48;4.90;99.90
59307;DHT22;47983;53.016;-2.260;2023-12-07T06:06:16;4.90;99.90
59307;DHT22;47983;53.016;-2.260;2023-12-07T06:08:44;4.90;99.90
59307;DHT22;47983;53.016;-2.260;2023-12-07T06:11:12;4.90;99.90
59307;DHT22;47983;53.016;-2.260;2023-12-07T06:13:40;5.00;99.90
59307;DHT22;47983;53.016;-2.260;2023-12-07T06:16:12;5.00;99.90
59307;DHT22;47983;53.016;-2.260;2023-12-07T06:18:40;4.90;99.90
59307;DHT22;47983;53.016;-2.260;2023-12-07T06:21:09;5.00;99.90
59307;DHT22;47983;53.016;-2.260;2023-12-07T06:23:37;5.00;99.90
59307;DHT22;47983;53.016;-2.260;2023-12-07T06:26:05;5.00;99.90
59307;DHT22;47983;53.016;-2.260;2023-12-07T06:28:33;5.00;99.90
59307;DHT22;47983;53.016;-2.260;2023-12-07T06:31:04;5.00;99.90
59307;DHT22;47983;53.016;-2.260;2023-12-07T06:33:33;5.00;99.90
59307;DHT22;47983;53.016;-2.260;2023-12-07T06:36:02;5.00;99.90
59307;DHT22;47983;53.016;-2.260;2023-12-07T06:38:33;5.00;99.90
59307;DHT22;47983;53.016;-2.260;2023-12-07T06:41:01;5.10;99.90
59307;DHT22;47983;53.016;-2.260;2023-12-07T06:43:29;5.00;99.90
59307;DHT22;47983;53.016;-2.260;2023-12-07T06:45:57;5.10;99.90
59307;DHT22;47983;53.016;-2.260;2023-12-07T06:48:24;5.10;99.90
59307;DHT22;47983;53.016;-2.260;2023-12-07T06:50:52;5.10;99.90
59307;DHT22;47983;53.016;-2.260;2023-12-07T06:53:20;5.10;99.90
59307;DHT22;47983;53.016;-2.260;2023-12-07T06:55:48;5.20;99.90
59307;DHT22;47983;53.016;-2.260;2023-12-07T06:58:16;5.20;99.90
59307;DHT22;47983;53.016;-2.260;2023-12-07T07:00:45;5.20;99.90
59307;DHT22;47983;53.016;-2.260;2023-12-07T07:03:13;5.20;99.90
59307;DHT22;47983;53.016;-2.260;2023-12-07T07:05:42;5.20;99.90
59307;DHT22;47983;53.016;-2.260;2023-12-07T07:08:10;5.30;99.90
59307;DHT22;47983;53.016;-2.260;2023-12-07T07:10:38;5.30;99.90
59307;DHT22;47983;53.016;-2.260;2023-12-07T07:13:06;5.30;99.90
59307;DHT22;47983;53.016;-2.260;2023-12-07T07:15:34;5.30;99.90
59307;DHT22;47983;53.016;-2.260;2023-12-07T07:18:02;5.30;99.90
59307;DHT22;47983;53.016;-2.260;2023-12-07T07:20:30;5.30;99.90
59307;DHT22;47983;53.016;-2.260;2023-12-07T07:22:58;5.40;99.90
59307;DHT22;47983;53.016;-2.260;2023-12-07T07:25:26;5.40;99.90
59307;DHT22;47983;53.016;-2.260;2023-12-07T07:27:53;5.40;99.90
59307;DHT22;47983;53.016;-2.260;2023-12-07T07:30:22;5.40;99.90
59307;DHT22;47983;53.016;-2.260;2023-12-07T07:32:49;5.40;99.90
59307;DHT22;47983;53.016;-2.260;2023-12-07T07:35:22;5.40;99.90
59307;DHT22;47983;53.016;-2.260;2023-12-07T07:37:50;5.40;99.90
59307;DHT22;47983;53.016;-2.260;2023-12-07T07:40:18;5.50;99.90
59307;DHT22;47983;53.016;-2.260;2023-12-07T07:42:46;5.40;99.90
59307;DHT22;47983;53.016;-2.260;2023-12-07T07:45:13;5.50;99.90
59307;DHT22;47983;53.016;-2.260;2023-12-07T07:47:42;5.40;99.90
59307;DHT22;47983;53.016;-2.260;2023-12-07T07:50:10;5.50;99.90
59307;DHT22;47983;53.016;-2.260;2023-12-07T07:52:38;5.50;99.90
59307;DHT22;47983;53.016;-2.260;2023-12-07T07:55:10;5.50;99.90
59307;DHT22;47983;53.016;-2.260;2023-12-07T07:57:38;5.50;99.90
59307;DHT22;47983;53.016;-2.260;2023-12-07T08:00:06;5.50;99.90
59307;DHT22;47983;53.016;-2.260;2023-12-07T08:02:36;5.50;99.90
59307;DHT22;47983;53.016;-2.260;2023-12-07T08:05:04;5.50;99.90
59307;DHT22;47983;53.016;-2.260;2023-12-07T08:07:32;5.50;99.90
59307;DHT22;47983;53.016;-2.260;2023-12-07T08:10:00;5.60;99.90
59307;DHT22;47983;53.016;-2.260;2023-12-07T08:12:27;5.60;99.90
59307;DHT22;47983;53.016;-2.260;2023-12-07T08:14:55;5.60;99.90
59307;DHT22;47983;53.016;-2.260;2023-12-07T08:17:24;5.60;99.90
59307;DHT22;47983;53.016;-2.260;2023-12-07T08:19:54;5.60;99.90
59307;DHT22;47983;53.016;-2.260;2023-12-07T08:22:22;5.70;99.90
59307;DHT22;47983;53.016;-2.260;2023-12-07T08:24:50;5.70;99.90
59307;DHT22;47983;53.016;-2.260;2023-12-07T08:27:32;5.70;99.90
59307;DHT22;47983;53.016;-2.260;2023-12-07T08:30:00;5.70;99.90
59307;DHT22;47983;53.016;-2.260;2023-12-07T08:32:28;5.70;99.90
59307;DHT22;47983;53.016;-2.260;2023-12-07T08:34:57;5.70;99.90
59307;DHT22;47983;53.016;-2.260;2023-12-07T08:37:25;5.70;99.90
59307;DHT22;47983;53.016;-2.260;2023-12-07T08:39:53;5.80;99.90
59307;DHT22;47983;53.016;-2.260;2023-12-07T08:42:21;5.80;99.90
59307;DHT22;47983;53.016;-2.260;2023-12-07T08:44:49;5.80;99.90
59307;DHT22;47983;53.016;-2.260;2023-12-07T08:47:17;5.80;99.90
59307;DHT22;47983;53.016;-2.260;2023-12-07T08:49:45;5.80;99.90
59307;DHT22;47983;53.016;-2.260;2023-12-07T08:52:13;5.80;99.90
59307;DHT22;47983;53.016;-2.260;2023-12-07T08:54:58;5.90;99.90
59307;DHT22;47983;53.016;-2.260;2023-12-07T08:57:25;5.90;99.90
59307;DHT22;47983;53.016;-2.260;2023-12-07T08:59:54;5.90;99.90
59307;DHT22;47983;53.016;-2.260;2023-12-07T09:02:22;5.90;99.90
59307;DHT22;47983;53.016;-2.260;2023-12-07T09:05:05;5.90;99.90
59307;DHT22;47983;53.016;-2.260;2023-12-07T09:07:34;6.00;99.90
59307;DHT22;47983;53.016;-2.260;2023-12-07T09:10:02;6.00;99.90
59307;DHT22;47983;53.016;-2.260;2023-12-07T09:12:30;6.00;99.90
59307;DHT22;47983;53.016;-2.260;2023-12-07T09:15:06;6.00;99.90
59307;DHT22;47983;53.016;-2.260;2023-12-07T09:17:38;6.00;99.90
59307;DHT22;47983;53.016;-2.260;2023-12-07T09:20:08;6.00;99.90
59307;DHT22;47983;53.016;-2.260;2023-12-07T09:22:46;6.00;99.90
59307;DHT22;47983;53.016;-2.260;2023-12-07T09:25:17;6.10;99.90
59307;DHT22;47983;53.016;-2.260;2023-12-07T09:27:45;6.10;99.90
59307;DHT22;47983;53.016;-2.260;2023-12-07T09:30:13;6.10;99.90
59307;DHT22;47983;53.016;-2.260;2023-12-07T09:32:42;6.10;99.90
59307;DHT22;47983;53.016;-2.260;2023-12-07T09:35:12;6.10;99.90
59307;DHT22;47983;53.016;-2.260;2023-12-07T09:37:48;6.10;99.90
59307;DHT22;47983;53.016;-2.260;2023-12-07T09:40:23;6.20;99.90
59307;DHT22;47983;53.016;-2.260;2023-12-07T09:42:52;6.20;99.90
59307;DHT22;47983;53.016;-2.260;2023-12-07T09:45:20;6.20;99.90
59307;DHT22;47983;53.016;-2.260;2023-12-07T09:47:50;6.20;99.90
59307;DHT22;47983;53.016;-2.260;2023-12-07T09:50:20;6.20;99.90
59307;DHT22;47983;53.016;-2.260;2023-12-07T09:52:51;6.20;99.90
59307;DHT22;47983;53.016;-2.260;2023-12-07T09:55:34;6.20;99.90
59307;DHT22;47983;53.016;-2.260;2023-12-07T09:58:05;6.20;99.90
59307;DHT22;47983;53.016;-2.260;2023-12-07T10:00:36;6.30;99.90
59307;DHT22;47983;53.016;-2.260;2023-12-07T10:03:05;6.30;99.90
59307;DHT22;47983;53.016;-2.260;2023-12-07T10:05:54;6.30;99.90
59307;DHT22;47983;53.016;-2.260;2023-12-07T10:08:27;6.30;99.90
59307;DHT22;47983;53.016;-2.260;2023-12-07T10:13:33;6.30;99.90
59307;DHT22;47983;53.016;-2.260;2023-12-07T10:16:11;6.30;99.90
59307;DHT22;47983;53.016;-2.260;2023-12-07T10:18:39;6.30;99.90
59307;DHT22;47983;53.016;-2.260;2023-12-07T10:21:11;6.40;99.90
59307;DHT22;47983;53.016;-2.260;2023-12-07T10:23:40;6.40;99.90
59307;DHT22;47983;53.016;-2.260;2023-12-07T10:26:08;6.40;99.90
59307;DHT22;47983;53.016;-2.260;2023-12-07T10:28:38;6.40;99.90
59307;DHT22;47983;53.016;-2.260;2023-12-07T10:31:10;6.50;99.90
59307;DHT22;47983;53.016;-2.260;2023-12-07T10:33:38;6.40;99.90
59307;DHT22;47983;53.016;-2.260;2023-12-07T10:36:06;6.50;99.90
59307;DHT22;47983;53.016;-2.260;2023-12-07T10:38:34;6.50;99.90
59307;DHT22;47983;53.016;-2.260;2023-12-07T10:41:05;6.50;99.90
59307;DHT22;47983;53.016;-2.260;2023-12-07T10:43:40;6.50;99.90
59307;DHT22;47983;53.016;-2.260;2023-12-07T10:46:10;6.50;99.90
59307;DHT22;47983;53.016;-2.260;2023-12-07T10:48:40;6.50;99.90
59307;DHT22;47983;53.016;-2.260;2023-12-07T10:51:09;6.50;99.90
59307;DHT22;47983;53.016;-2.260;2023-12-07T10:53:41;6.50;99.90
59307;DHT22;47983;53.016;-2.260;2023-12-07T10:56:16;6.60;99.90
59307;DHT22;47983;53.016;-2.260;2023-12-07T10:58:43;6.60;99.90
59307;DHT22;47983;53.016;-2.260;2023-12-07T11:01:12;6.60;99.90
59307;DHT22;47983;53.016;-2.260;2023-12-07T11:03:42;6.60;99.90
59307;DHT22;47983;53.016;-2.260;2023-12-07T11:06:11;6.60;99.90
59307;DHT22;47983;53.016;-2.260;2023-12-07T11:08:40;6.60;99.90
59307;DHT22;47983;53.016;-2.260;2023-12-07T11:11:15;6.60;99.90
59307;DHT22;47983;53.016;-2.260;2023-12-07T11:13:49;6.60;99.90
59307;DHT22;47983;53.016;-2.260;2023-12-07T11:16:28;6.60;99.90
59307;DHT22;47983;53.016;-2.260;2023-12-07T11:18:56;6.60;99.90
59307;DHT22;47983;53.016;-2.260;2023-12-07T11:21:24;6.60;99.90
59307;DHT22;47983;53.016;-2.260;2023-12-07T11:23:54;6.60;99.90
59307;DHT22;47983;53.016;-2.260;2023-12-07T11:26:22;6.60;99.90
59307;DHT22;47983;53.016;-2.260;2023-12-07T11:28:51;6.60;99.90
59307;DHT22;47983;53.016;-2.260;2023-12-07T11:31:19;6.60;99.90
59307;DHT22;47983;53.016;-2.260;2023-12-07T11:33:47;6.60;99.90
59307;DHT22;47983;53.016;-2.260;2023-12-07T11:36:15;6.60;99.90
59307;DHT22;47983;53.016;-2.260;2023-12-07T11:41:44;6.70;99.90
59307;DHT22;47983;53.016;-2.260;2023-12-07T11:44:12;6.70;99.90
59307;DHT22;47983;53.016;-2.260;2023-12-07T11:46:40;6.70;99.90
59307;DHT22;47983;53.016;-2.260;2023-12-07T11:49:08;6.70;99.90
59307;DHT22;47983;53.016;-2.260;2023-12-07T11:51:54;6.70;99.90
59307;DHT22;47983;53.016;-2.260;2023-12-07T11:54:22;6.70;99.90
59307;DHT22;47983;53.016;-2.260;2023-12-07T11:56:53;6.70;99.90
59307;DHT22;47983;53.016;-2.260;2023-12-07T11:59:22;6.70;99.90
59307;DHT22;47983;53.016;-2.260;2023-12-07T12:02:00;6.80;99.90
59307;DHT22;47983;53.016;-2.260;2023-12-07T12:04:30;6.70;99.90
59307;DHT22;47983;53.016;-2.260;2023-12-07T12:06:58;6.70;99.90
59307;DHT22;47983;53.016;-2.260;2023-12-07T12:09:26;6.80;99.90
59307;DHT22;47983;53.016;-2.260;2023-12-07T12:11:59;6.80;99.90
59307;DHT22;47983;53.016;-2.260;2023-12-07T12:14:28;6.80;99.90
59307;DHT22;47983;53.016;-2.260;2023-12-07T12:16:56;6.80;99.90
59307;DHT22;47983;53.016;-2.260;2023-12-07T12:19:25;6.80;99.90
59307;DHT22;47983;53.016;-2.260;2023-12-07T12:22:01;6.80;99.90
59307;DHT22;47983;53.016;-2.260;2023-12-07T12:24:34;6.80;99.90
59307;DHT22;47983;53.016;-2.260;2023-12-07T12:27:01;6.80;99.90
59307;DHT22;47983;53.016;-2.260;2023-12-07T12:29:29;6.80;99.90
59307;DHT22;47983;53.016;-2.260;2023-12-07T12:32:02;6.80;99.90
59307;DHT22;47983;53.016;-2.260;2023-12-07T12:34:34;6.80;99.90
59307;DHT22;47983;53.016;-2.260;2023-12-07T12:37:03;6.80;99.90
59307;DHT22;47983;53.016;-2.260;2023-12-07T12:39:34;6.80;99.90
59307;DHT22;47983;53.016;-2.260;2023-12-07T12:42:02;6.80;99.90
59307;DHT22;47983;53.016;-2.260;2023-12-07T12:44:31;6.90;99.90
59307;DHT22;47983;53.016;-2.260;2023-12-07T12:47:05;6.90;99.90
59307;DHT22;47983;53.016;-2.260;2023-12-07T12:49:39;6.90;99.90
59307;DHT22;47983;53.016;-2.260;2023-12-07T12:52:14;6.90;99.90
59307;DHT22;47983;53.016;-2.260;2023-12-07T12:54:44;6.90;99.90
59307;DHT22;47983;53.016;-2.260;2023-12-07T12:57:12;6.90;99.90
59307;DHT22;47983;53.016;-2.260;2023-12-07T12:59:41;6.90;99.90
59307;DHT22;47983;53.016;-2.260;2023-12-07T13:02:09;6.90;99.90
59307;DHT22;47983;53.016;-2.260;2023-12-07T13:04:38;6.90;99.90
59307;DHT22;47983;53.016;-2.260;2023-12-07T13:07:09;6.90;99.90
59307;DHT22;47983;53.016;-2.260;2023-12-07T13:09:38;6.90;99.90
59307;DHT22;47983;53.016;-2.260;2023-12-07T13:12:06;6.80;99.90
59307;DHT22;47983;53.016;-2.260;2023-12-07T13:14:34;6.80;99.90
59307;DHT22;47983;53.016;-2.260;2023-12-07T13:17:04;6.80;99.90
59307;DHT22;47983;53.016;-2.260;2023-12-07T13:19:32;6.80;99.90
59307;DHT22;47983;53.016;-2.260;2023-12-07T13:22:01;6.80;99.90
59307;DHT22;47983;53.016;-2.260;2023-12-07T13:24:30;6.70;99.90
59307;DHT22;47983;53.016;-2.260;2023-12-07T13:26:58;6.70;99.90
59307;DHT22;47983;53.016;-2.260;2023-12-07T13:29:28;6.70;99.90
59307;DHT22;47983;53.016;-2.260;2023-12-07T13:32:03;6.70;99.90
59307;DHT22;47983;53.016;-2.260;2023-12-07T13:34:32;6.70;99.90
59307;DHT22;47983;53.016;-2.260;2023-12-07T13:37:02;6.60;99.90
59307;DHT22;47983;53.016;-2.260;2023-12-07T13:39:29;6.60;99.90
59307;DHT22;47983;53.016;-2.260;2023-12-07T13:41:59;6.60;99.90
59307;DHT22;47983;53.016;-2.260;2023-12-07T13:44:31;6.60;99.90
59307;DHT22;47983;53.016;-2.260;2023-12-07T13:47:01;6.60;99.90
59307;DHT22;47983;53.016;-2.260;2023-12-07T13:49:29;6.50;99.90
59307;DHT22;47983;53.016;-2.260;2023-12-07T13:52:01;6.50;99.90
59307;DHT22;47983;53.016;-2.260;2023-12-07T13:54:36;6.50;99.90
59307;DHT22;47983;53.016;-2.260;2023-12-07T13:57:06;6.50;99.90
59307;DHT22;47983;53.016;-2.260;2023-12-07T13:59:35;6.50;99.90
59307;DHT22;47983;53.016;-2.260;2023-12-07T14:02:05;6.50;99.90
59307;DHT22;47983;53.016;-2.260;2023-12-07T14:04:33;6.50;99.90
59307;DHT22;47983;53.016;-2.260;2023-12-07T14:07:11;6.50;99.90
59307;DHT22;47983;53.016;-2.260;2023-12-07T14:09:40;6.50;99.90
59307;DHT22;47983;53.016;-2.260;2023-12-07T14:12:23;6.50;99.90
59307;DHT22;47983;53.016;-2.260;2023-12-07T14:14:51;6.50;99.90
59307;DHT22;47983;53.016;-2.260;2023-12-07T14:17:18;6.40;99.90
59307;DHT22;47983;53.016;-2.260;2023-12-07T14:19:48;6.50;99.90
59307;DHT22;47983;53.016;-2.260;2023-12-07T14:22:26;6.40;99.90
59307;DHT22;47983;53.016;-2.260;2023-12-07T14:24:54;6.40;99.90
59307;DHT22;47983;53.016;-2.260;2023-12-07T14:27:22;6.40;99.90
59307;DHT22;47983;53.016;-2.260;2023-12-07T14:29:50;6.40;99.90
59307;DHT22;47983;53.016;-2.260;2023-12-07T14:32:18;6.40;99.90
59307;DHT22;47983;53.016;-2.260;2023-12-07T14:34:45;6.40;99.90
59307;DHT22;47983;53.016;-2.260;2023-12-07T14:37:14;6.40;99.90
59307;DHT22;47983;53.016;-2.260;2023-12-07T14:39:41;6.40;99.90
59307;DHT22;47983;53.016;-2.260;2023-12-07T14:42:11;6.40;99.90
59307;DHT22;47983;53.016;-2.260;2023-12-07T14:44:39;6.40;99.90
59307;DHT22;47983;53.016;-2.260;2023-12-07T14:47:06;6.40;99.90
59307;DHT22;47983;53.016;-2.260;2023-12-07T14:49:34;6.40;99.90
59307;DHT22;47983;53.016;-2.260;2023-12-07T14:52:02;6.40;99.90
59307;DHT22;47983;53.016;-2.260;2023-12-07T14:54:30;6.40;99.90
59307;DHT22;47983;53.016;-2.260;2023-12-07T14:56:59;6.40;99.90
59307;DHT22;47983;53.016;-2.260;2023-12-07T14:59:28;6.40;99.90
59307;DHT22;47983;53.016;-2.260;2023-12-07T15:01:56;6.40;99.90
59307;DHT22;47983;53.016;-2.260;2023-12-07T15:04:23;6.30;99.90
59307;DHT22;47983;53.016;-2.260;2023-12-07T15:07:01;6.30;99.90
59307;DHT22;47983;53.016;-2.260;2023-12-07T15:09:29;6.30;99.90
59307;DHT22;47983;53.016;-2.260;2023-12-07T15:11:59;6.40;99.90
59307;DHT22;47983;53.016;-2.260;2023-12-07T15:14:27;6.30;99.90
59307;DHT22;47983;53.016;-2.260;2023-12-07T15:17:05;6.30;99.90
59307;DHT22;47983;53.016;-2.260;2023-12-07T15:19:35;6.30;99.90
59307;DHT22;47983;53.016;-2.260;2023-12-07T15:22:07;6.30;99.90
59307;DHT22;47983;53.016;-2.260;2023-12-07T15:24:35;6.30;99.90
59307;DHT22;47983;53.016;-2.260;2023-12-07T15:27:05;6.30;99.90
59307;DHT22;47983;53.016;-2.260;2023-12-07T15:29:33;6.30;99.90
59307;DHT22;47983;53.016;-2.260;2023-12-07T15:32:08;6.30;99.90
59307;DHT22;47983;53.016;-2.260;2023-12-07T15:34:36;6.30;99.90
59307;DHT22;47983;53.016;-2.260;2023-12-07T15:37:08;6.40;99.90
59307;DHT22;47983;53.016;-2.260;2023-12-07T15:39:41;6.30;99.90
59307;DHT22;47983;53.016;-2.260;2023-12-07T15:42:10;6.30;99.90
59307;DHT22;47983;53.016;-2.260;2023-12-07T15:44:39;6.30;99.90
59307;DHT22;47983;53.016;-2.260;2023-12-07T15:47:07;6.30;99.90
59307;DHT22;47983;53.016;-2.260;2023-12-07T15:49:35;6.30;99.90
59307;DHT22;47983;53.016;-2.260;2023-12-07T15:52:04;6.30;99.90